Dawson, Dawson City Airport (CYDA)

NameDawson City Airport
CityDawson
CountryCanada
ICAOCYDA
IATAYDA
Altitude370 m
CoordinatesGoogle Map
Live Air TrafficLiveATC.net
METARCYDA 190100Z 00000KT 20SM SCT058 BKN120 M19/M21 A2979 RMK SC3AC4 LAST STFD OBS/NXT 11191400 SLP134
2019-11-19 01:00:00 Wind: North (0°) 0 m/s - Visibility: 32186.8 m - Temperature: -19 °C - Dew point: -21 °C - Humidity: 84.3% - Pressure: 1008.81 hPa

Sorry, no flights used the airport in this database.